sensor_id;sensor_type;location;lat;lon;timestamp;temperature;humidity
13585;DHT22;6863;48.402;9.994;2023-05-07T00:01:42;12.60;99.90
13585;DHT22;6863;48.402;9.994;2023-05-07T00:04:08;12.50;99.90
13585;DHT22;6863;48.402;9.994;2023-05-07T00:06:34;12.50;99.90
13585;DHT22;6863;48.402;9.994;2023-05-07T00:08:59;12.50;99.90
13585;DHT22;6863;48.402;9.994;2023-05-07T00:11:26;12.50;99.90
13585;DHT22;6863;48.402;9.994;2023-05-07T00:13:53;12.50;99.90
13585;DHT22;6863;48.402;9.994;2023-05-07T00:16:24;12.30;99.90
13585;DHT22;6863;48.402;9.994;2023-05-07T00:18:52;12.20;99.90
13585;DHT22;6863;48.402;9.994;2023-05-07T00:21:20;12.20;99.90
13585;DHT22;6863;48.402;9.994;2023-05-07T00:23:53;12.20;99.90
13585;DHT22;6863;48.402;9.994;2023-05-07T00:26:22;12.10;99.90
13585;DHT22;6863;48.402;9.994;2023-05-07T00:28:47;12.10;99.90
13585;DHT22;6863;48.402;9.994;2023-05-07T00:31:13;12.00;99.90
13585;DHT22;6863;48.402;9.994;2023-05-07T00:33:39;12.00;99.90
13585;DHT22;6863;48.402;9.994;2023-05-07T00:36:04;12.00;99.90
13585;DHT22;6863;48.402;9.994;2023-05-07T00:38:30;11.90;99.90
13585;DHT22;6863;48.402;9.994;2023-05-07T00:40:56;12.00;99.90
13585;DHT22;6863;48.402;9.994;2023-05-07T00:43:21;11.90;99.90
13585;DHT22;6863;48.402;9.994;2023-05-07T00:45:47;11.90;99.90
13585;DHT22;6863;48.402;9.994;2023-05-07T00:48:12;11.90;99.90
13585;DHT22;6863;48.402;9.994;2023-05-07T00:50:38;11.90;99.90
13585;DHT22;6863;48.402;9.994;2023-05-07T00:53:04;11.90;99.90
13585;DHT22;6863;48.402;9.994;2023-05-07T00:55:30;11.90;99.90
13585;DHT22;6863;48.402;9.994;2023-05-07T00:57:55;11.90;99.90
13585;DHT22;6863;48.402;9.994;2023-05-07T01:00:21;11.80;99.90
13585;DHT22;6863;48.402;9.994;2023-05-07T01:02:47;11.80;99.90
13585;DHT22;6863;48.402;9.994;2023-05-07T01:05:14;11.80;99.90
13585;DHT22;6863;48.402;9.994;2023-05-07T01:07:42;11.70;99.90
13585;DHT22;6863;48.402;9.994;2023-05-07T01:10:08;11.70;99.90
13585;DHT22;6863;48.402;9.994;2023-05-07T01:12:38;11.60;99.90
13585;DHT22;6863;48.402;9.994;2023-05-07T01:15:05;11.60;99.90
13585;DHT22;6863;48.402;9.994;2023-05-07T01:17:41;11.60;99.90
13585;DHT22;6863;48.402;9.994;2023-05-07T01:20:08;11.70;99.90
13585;DHT22;6863;48.402;9.994;2023-05-07T01:22:36;11.70;99.90
13585;DHT22;6863;48.402;9.994;2023-05-07T01:25:03;11.90;99.90
13585;DHT22;6863;48.402;9.994;2023-05-07T01:27:29;11.80;99.90
13585;DHT22;6863;48.402;9.994;2023-05-07T01:29:55;11.70;99.90
13585;DHT22;6863;48.402;9.994;2023-05-07T01:32:31;11.80;99.90
13585;DHT22;6863;48.402;9.994;2023-05-07T01:34:58;11.70;99.90
13585;DHT22;6863;48.402;9.994;2023-05-07T01:37:25;11.70;99.90
13585;DHT22;6863;48.402;9.994;2023-05-07T01:39:53;11.70;99.90
13585;DHT22;6863;48.402;9.994;2023-05-07T01:42:19;11.70;99.90
13585;DHT22;6863;48.402;9.994;2023-05-07T01:44:45;11.70;99.90
13585;DHT22;6863;48.402;9.994;2023-05-07T01:47:11;11.70;99.90
13585;DHT22;6863;48.402;9.994;2023-05-07T01:49:37;11.70;99.90
13585;DHT22;6863;48.402;9.994;2023-05-07T01:52:03;11.70;99.90
13585;DHT22;6863;48.402;9.994;2023-05-07T01:54:29;11.60;99.90
13585;DHT22;6863;48.402;9.994;2023-05-07T01:56:58;11.60;99.90
13585;DHT22;6863;48.402;9.994;2023-05-07T01:59:23;11.60;99.90
13585;DHT22;6863;48.402;9.994;2023-05-07T02:01:49;11.60;99.90
13585;DHT22;6863;48.402;9.994;2023-05-07T02:04:14;11.60;99.90
13585;DHT22;6863;48.402;9.994;2023-05-07T02:06:40;11.60;99.90
13585;DHT22;6863;48.402;9.994;2023-05-07T02:09:05;11.60;99.90
13585;DHT22;6863;48.402;9.994;2023-05-07T02:11:31;11.60;99.90
13585;DHT22;6863;48.402;9.994;2023-05-07T02:13:56;11.60;99.90
13585;DHT22;6863;48.402;9.994;2023-05-07T02:16:22;11.50;99.90
13585;DHT22;6863;48.402;9.994;2023-05-07T02:18:49;11.50;99.90
13585;DHT22;6863;48.402;9.994;2023-05-07T02:21:14;11.50;99.90
13585;DHT22;6863;48.402;9.994;2023-05-07T02:23:40;11.50;99.90
13585;DHT22;6863;48.402;9.994;2023-05-07T02:26:06;11.40;99.90
13585;DHT22;6863;48.402;9.994;2023-05-07T02:28:31;11.30;99.90
13585;DHT22;6863;48.402;9.994;2023-05-07T02:30:57;11.20;99.90
13585;DHT22;6863;48.402;9.994;2023-05-07T02:33:25;11.30;99.90
13585;DHT22;6863;48.402;9.994;2023-05-07T02:35:50;11.20;99.90
13585;DHT22;6863;48.402;9.994;2023-05-07T02:38:17;11.20;99.90
13585;DHT22;6863;48.402;9.994;2023-05-07T02:40:43;11.10;99.90
13585;DHT22;6863;48.402;9.994;2023-05-07T02:43:08;11.10;99.90
13585;DHT22;6863;48.402;9.994;2023-05-07T02:45:37;11.10;99.90
13585;DHT22;6863;48.402;9.994;2023-05-07T02:48:04;11.10;99.90
13585;DHT22;6863;48.402;9.994;2023-05-07T02:50:30;11.10;99.90
13585;DHT22;6863;48.402;9.994;2023-05-07T02:52:58;11.00;99.90
13585;DHT22;6863;48.402;9.994;2023-05-07T02:55:23;11.00;99.90
13585;DHT22;6863;48.402;9.994;2023-05-07T02:57:49;11.00;99.90
13585;DHT22;6863;48.402;9.994;2023-05-07T03:00:16;10.90;99.90
13585;DHT22;6863;48.402;9.994;2023-05-07T03:02:43;10.90;99.90
13585;DHT22;6863;48.402;9.994;2023-05-07T03:05:09;10.80;99.90
13585;DHT22;6863;48.402;9.994;2023-05-07T03:07:35;10.80;99.90
13585;DHT22;6863;48.402;9.994;2023-05-07T03:10:01;10.80;99.90
13585;DHT22;6863;48.402;9.994;2023-05-07T03:12:27;10.70;99.90
13585;DHT22;6863;48.402;9.994;2023-05-07T03:14:52;10.60;99.90
13585;DHT22;6863;48.402;9.994;2023-05-07T03:17:18;10.60;99.90
13585;DHT22;6863;48.402;9.994;2023-05-07T03:19:43;10.60;99.90
13585;DHT22;6863;48.402;9.994;2023-05-07T03:22:09;10.60;99.90
13585;DHT22;6863;48.402;9.994;2023-05-07T03:24:35;10.60;99.90
13585;DHT22;6863;48.402;9.994;2023-05-07T03:27:00;10.70;99.90
13585;DHT22;6863;48.402;9.994;2023-05-07T03:29:26;10.60;99.90
13585;DHT22;6863;48.402;9.994;2023-05-07T03:31:52;10.50;99.90
13585;DHT22;6863;48.402;9.994;2023-05-07T03:34:17;10.50;99.90
13585;DHT22;6863;48.402;9.994;2023-05-07T03:36:48;10.40;99.90
13585;DHT22;6863;48.402;9.994;2023-05-07T03:39:13;10.40;99.90
13585;DHT22;6863;48.402;9.994;2023-05-07T03:41:39;10.40;99.90
13585;DHT22;6863;48.402;9.994;2023-05-07T03:44:04;10.40;99.90
13585;DHT22;6863;48.402;9.994;2023-05-07T03:46:30;10.40;99.90
13585;DHT22;6863;48.402;9.994;2023-05-07T03:48:56;10.30;99.90
13585;DHT22;6863;48.402;9.994;2023-05-07T03:51:21;10.30;99.90
13585;DHT22;6863;48.402;9.994;2023-05-07T03:53:47;10.30;99.90
13585;DHT22;6863;48.402;9.994;2023-05-07T03:56:12;10.30;99.90
13585;DHT22;6863;48.402;9.994;2023-05-07T03:58:38;10.30;99.90
13585;DHT22;6863;48.402;9.994;2023-05-07T04:01:03;10.30;99.90
13585;DHT22;6863;48.402;9.994;2023-05-07T04:03:29;10.40;99.90
13585;DHT22;6863;48.402;9.994;2023-05-07T04:05:55;10.30;99.90
13585;DHT22;6863;48.402;9.994;2023-05-07T04:08:20;10.40;99.90
13585;DHT22;6863;48.402;9.994;2023-05-07T04:10:46;10.40;99.90
13585;DHT22;6863;48.402;9.994;2023-05-07T04:13:11;10.40;99.90
13585;DHT22;6863;48.402;9.994;2023-05-07T04:15:37;10.40;99.90
13585;DHT22;6863;48.402;9.994;2023-05-07T04:18:02;10.40;99.90
13585;DHT22;6863;48.402;9.994;2023-05-07T04:20:28;10.40;99.90
13585;DHT22;6863;48.402;9.994;2023-05-07T04:22:53;10.40;99.90
13585;DHT22;6863;48.402;9.994;2023-05-07T04:25:19;10.50;99.90
13585;DHT22;6863;48.402;9.994;2023-05-07T04:27:45;10.50;99.90
13585;DHT22;6863;48.402;9.994;2023-05-07T04:30:11;10.60;99.90
13585;DHT22;6863;48.402;9.994;2023-05-07T04:32:37;10.60;99.90
13585;DHT22;6863;48.402;9.994;2023-05-07T04:35:03;10.60;99.90
13585;DHT22;6863;48.402;9.994;2023-05-07T04:37:29;10.70;99.90
13585;DHT22;6863;48.402;9.994;2023-05-07T04:39:56;10.60;99.90
13585;DHT22;6863;48.402;9.994;2023-05-07T04:42:22;10.60;99.90
13585;DHT22;6863;48.402;9.994;2023-05-07T04:44:52;10.70;99.90
13585;DHT22;6863;48.402;9.994;2023-05-07T04:47:18;10.70;99.90
13585;DHT22;6863;48.402;9.994;2023-05-07T04:49:44;10.70;99.90
13585;DHT22;6863;48.402;9.994;2023-05-07T04:52:10;10.80;99.90
13585;DHT22;6863;48.402;9.994;2023-05-07T04:54:35;10.90;99.90
13585;DHT22;6863;48.402;9.994;2023-05-07T04:57:02;11.00;99.90
13585;DHT22;6863;48.402;9.994;2023-05-07T04:59:28;11.10;99.90
13585;DHT22;6863;48.402;9.994;2023-05-07T05:01:54;11.20;99.90
13585;DHT22;6863;48.402;9.994;2023-05-07T05:04:19;11.30;99.90
13585;DHT22;6863;48.402;9.994;2023-05-07T05:06:45;11.50;99.90
13585;DHT22;6863;48.402;9.994;2023-05-07T05:09:10;11.60;99.90
13585;DHT22;6863;48.402;9.994;2023-05-07T05:11:36;11.70;99.90
13585;DHT22;6863;48.402;9.994;2023-05-07T05:14:02;11.80;99.90
13585;DHT22;6863;48.402;9.994;2023-05-07T05:16:27;11.90;99.90
13585;DHT22;6863;48.402;9.994;2023-05-07T05:18:53;12.00;99.90
13585;DHT22;6863;48.402;9.994;2023-05-07T05:21:20;12.20;99.90
13585;DHT22;6863;48.402;9.994;2023-05-07T05:23:46;12.30;99.90
13585;DHT22;6863;48.402;9.994;2023-05-07T05:26:12;12.40;99.90
13585;DHT22;6863;48.402;9.994;2023-05-07T05:28:37;12.50;99.90
13585;DHT22;6863;48.402;9.994;2023-05-07T05:31:03;12.60;99.90
13585;DHT22;6863;48.402;9.994;2023-05-07T05:33:28;12.80;99.90
13585;DHT22;6863;48.402;9.994;2023-05-07T05:35:54;13.00;99.90
13585;DHT22;6863;48.402;9.994;2023-05-07T05:38:20;13.10;99.90
13585;DHT22;6863;48.402;9.994;2023-05-07T05:40:46;13.20;99.90
13585;DHT22;6863;48.402;9.994;2023-05-07T05:43:12;13.30;99.90
13585;DHT22;6863;48.402;9.994;2023-05-07T05:45:40;13.60;99.90
13585;DHT22;6863;48.402;9.994;2023-05-07T05:48:06;13.70;99.90
13585;DHT22;6863;48.402;9.994;2023-05-07T05:50:31;13.90;99.90
13585;DHT22;6863;48.402;9.994;2023-05-07T05:52:57;14.10;99.90
13585;DHT22;6863;48.402;9.994;2023-05-07T05:55:23;14.30;99.90
13585;DHT22;6863;48.402;9.994;2023-05-07T05:57:49;14.50;99.90
13585;DHT22;6863;48.402;9.994;2023-05-07T06:00:15;14.60;99.90
13585;DHT22;6863;48.402;9.994;2023-05-07T06:02:41;14.80;99.90
13585;DHT22;6863;48.402;9.994;2023-05-07T06:05:08;14.90;99.90
13585;DHT22;6863;48.402;9.994;2023-05-07T06:07:34;15.10;99.90
13585;DHT22;6863;48.402;9.994;2023-05-07T06:10:00;15.20;99.90
13585;DHT22;6863;48.402;9.994;2023-05-07T06:12:26;15.30;99.90
13585;DHT22;6863;48.402;9.994;2023-05-07T06:14:51;15.30;99.90
13585;DHT22;6863;48.402;9.994;2023-05-07T06:17:17;15.60;99.90
13585;DHT22;6863;48.402;9.994;2023-05-07T06:19:43;15.70;99.90
13585;DHT22;6863;48.402;9.994;2023-05-07T06:22:08;15.70;99.90
13585;DHT22;6863;48.402;9.994;2023-05-07T06:24:34;15.90;99.90
13585;DHT22;6863;48.402;9.994;2023-05-07T06:27:00;16.20;99.90
13585;DHT22;6863;48.402;9.994;2023-05-07T06:29:25;16.40;99.90
13585;DHT22;6863;48.402;9.994;2023-05-07T06:31:52;16.60;99.90
13585;DHT22;6863;48.402;9.994;2023-05-07T06:34:18;16.70;99.90
13585;DHT22;6863;48.402;9.994;2023-05-07T06:36:43;16.90;99.90
13585;DHT22;6863;48.402;9.994;2023-05-07T06:39:09;17.20;99.50
13585;DHT22;6863;48.402;9.994;2023-05-07T06:41:35;17.30;99.20
13585;DHT22;6863;48.402;9.994;2023-05-07T06:44:02;17.50;98.80
13585;DHT22;6863;48.402;9.994;2023-05-07T06:46:28;17.60;98.40
13585;DHT22;6863;48.402;9.994;2023-05-07T06:48:54;17.80;97.90
13585;DHT22;6863;48.402;9.994;2023-05-07T06:51:19;18.00;97.80
13585;DHT22;6863;48.402;9.994;2023-05-07T06:53:45;18.00;97.60
13585;DHT22;6863;48.402;9.994;2023-05-07T06:56:11;18.20;97.30
13585;DHT22;6863;48.402;9.994;2023-05-07T06:58:37;18.30;97.60
13585;DHT22;6863;48.402;9.994;2023-05-07T07:01:02;18.30;97.00
13585;DHT22;6863;48.402;9.994;2023-05-07T07:03:28;18.20;97.50
13585;DHT22;6863;48.402;9.994;2023-05-07T07:05:54;18.20;97.40
13585;DHT22;6863;48.402;9.994;2023-05-07T07:08:21;18.50;97.20
13585;DHT22;6863;48.402;9.994;2023-05-07T07:10:47;18.70;96.40
13585;DHT22;6863;48.402;9.994;2023-05-07T07:13:13;18.80;96.10
13585;DHT22;6863;48.402;9.994;2023-05-07T07:15:39;19.00;96.10
13585;DHT22;6863;48.402;9.994;2023-05-07T07:18:05;19.20;95.50
13585;DHT22;6863;48.402;9.994;2023-05-07T07:20:31;19.40;95.30
13585;DHT22;6863;48.402;9.994;2023-05-07T07:22:57;19.70;94.80
13585;DHT22;6863;48.402;9.994;2023-05-07T07:25:22;20.00;94.00
13585;DHT22;6863;48.402;9.994;2023-05-07T07:30:17;20.50;93.10
13585;DHT22;6863;48.402;9.994;2023-05-07T07:32:42;20.90;92.70
13585;DHT22;6863;48.402;9.994;2023-05-07T07:35:08;21.20;91.90
13585;DHT22;6863;48.402;9.994;2023-05-07T07:37:34;21.50;91.00
13585;DHT22;6863;48.402;9.994;2023-05-07T07:40:00;21.70;90.70
13585;DHT22;6863;48.402;9.994;2023-05-07T07:42:25;21.70;90.30
13585;DHT22;6863;48.402;9.994;2023-05-07T07:44:51;21.90;89.50
13585;DHT22;6863;48.402;9.994;2023-05-07T07:47:16;22.20;88.60
13585;DHT22;6863;48.402;9.994;2023-05-07T07:49:42;22.40;87.20
13585;DHT22;6863;48.402;9.994;2023-05-07T07:52:07;22.80;87.10
13585;DHT22;6863;48.402;9.994;2023-05-07T07:54:33;22.70;85.20
13585;DHT22;6863;48.402;9.994;2023-05-07T07:56:59;22.80;85.90
13585;DHT22;6863;48.402;9.994;2023-05-07T07:59:25;22.70;86.60
13585;DHT22;6863;48.402;9.994;2023-05-07T08:01:50;23.00;84.90
13585;DHT22;6863;48.402;9.994;2023-05-07T08:04:17;23.20;83.10
13585;DHT22;6863;48.402;9.994;2023-05-07T08:06:43;23.50;82.00
13585;DHT22;6863;48.402;9.994;2023-05-07T08:09:08;23.60;80.90
13585;DHT22;6863;48.402;9.994;2023-05-07T08:11:34;23.40;81.40
13585;DHT22;6863;48.402;9.994;2023-05-07T08:14:00;23.60;81.70
13585;DHT22;6863;48.402;9.994;2023-05-07T08:16:26;23.40;81.80
13585;DHT22;6863;48.402;9.994;2023-05-07T08:18:51;23.60;80.80
13585;DHT22;6863;48.402;9.994;2023-05-07T08:21:17;24.00;80.00
13585;DHT22;6863;48.402;9.994;2023-05-07T08:23:42;24.10;78.80
13585;DHT22;6863;48.402;9.994;2023-05-07T08:26:08;23.90;78.70
13585;DHT22;6863;48.402;9.994;2023-05-07T08:28:35;23.70;80.30
13585;DHT22;6863;48.402;9.994;2023-05-07T08:31:00;24.10;78.60
13585;DHT22;6863;48.402;9.994;2023-05-07T08:33:26;24.80;78.30
13585;DHT22;6863;48.402;9.994;2023-05-07T08:35:52;25.70;74.90
13585;DHT22;6863;48.402;9.994;2023-05-07T08:38:17;25.40;74.90
13585;DHT22;6863;48.402;9.994;2023-05-07T08:40:43;25.20;74.00
13585;DHT22;6863;48.402;9.994;2023-05-07T08:43:12;25.50;74.40
13585;DHT22;6863;48.402;9.994;2023-05-07T08:45:39;26.20;70.70
13585;DHT22;6863;48.402;9.994;2023-05-07T08:48:09;26.50;69.90
13585;DHT22;6863;48.402;9.994;2023-05-07T08:50:36;26.80;68.80
13585;DHT22;6863;48.402;9.994;2023-05-07T08:53:05;27.00;67.50
13585;DHT22;6863;48.402;9.994;2023-05-07T08:55:30;26.60;68.40
13585;DHT22;6863;48.402;9.994;2023-05-07T08:57:56;26.90;66.90
13585;DHT22;6863;48.402;9.994;2023-05-07T09:00:22;27.10;67.40
13585;DHT22;6863;48.402;9.994;2023-05-07T09:02:48;27.60;65.00
13585;DHT22;6863;48.402;9.994;2023-05-07T09:05:13;28.20;63.00
13585;DHT22;6863;48.402;9.994;2023-05-07T09:07:39;28.50;61.00
13585;DHT22;6863;48.402;9.994;2023-05-07T09:10:05;28.50;61.90
13585;DHT22;6863;48.402;9.994;2023-05-07T09:12:32;28.90;61.00
13585;DHT22;6863;48.402;9.994;2023-05-07T09:14:59;28.60;60.60
13585;DHT22;6863;48.402;9.994;2023-05-07T09:17:25;28.10;61.20
13585;DHT22;6863;48.402;9.994;2023-05-07T09:19:50;27.80;62.00
13585;DHT22;6863;48.402;9.994;2023-05-07T09:22:16;28.30;61.90
13585;DHT22;6863;48.402;9.994;2023-05-07T09:24:47;28.60;60.30
13585;DHT22;6863;48.402;9.994;2023-05-07T09:27:16;29.90;58.80
13585;DHT22;6863;48.402;9.994;2023-05-07T09:29:43;31.00;55.70
13585;DHT22;6863;48.402;9.994;2023-05-07T09:32:09;32.20;52.80
13585;DHT22;6863;48.402;9.994;2023-05-07T09:34:35;32.60;51.20
13585;DHT22;6863;48.402;9.994;2023-05-07T09:37:02;32.50;50.00
13585;DHT22;6863;48.402;9.994;2023-05-07T09:39:42;33.60;47.50
13585;DHT22;6863;48.402;9.994;2023-05-07T09:42:08;33.40;48.40
13585;DHT22;6863;48.402;9.994;2023-05-07T09:44:34;34.70;45.50
13585;DHT22;6863;48.402;9.994;2023-05-07T09:47:02;35.50;43.40
13585;DHT22;6863;48.402;9.994;2023-05-07T09:49:30;35.60;42.00
13585;DHT22;6863;48.402;9.994;2023-05-07T09:52:00;36.00;40.70
13585;DHT22;6863;48.402;9.994;2023-05-07T09:54:26;35.60;39.60
13585;DHT22;6863;48.402;9.994;2023-05-07T09:56:55;35.50;40.60
13585;DHT22;6863;48.402;9.994;2023-05-07T09:59:21;35.80;40.10
13585;DHT22;6863;48.402;9.994;2023-05-07T10:01:49;36.30;39.40
13585;DHT22;6863;48.402;9.994;2023-05-07T10:04:16;36.90;38.20
13585;DHT22;6863;48.402;9.994;2023-05-07T10:06:42;37.80;35.90
13585;DHT22;6863;48.402;9.994;2023-05-07T10:09:09;35.80;38.30
13585;DHT22;6863;48.402;9.994;2023-05-07T10:11:36;34.70;38.40
13585;DHT22;6863;48.402;9.994;2023-05-07T10:14:03;33.40;41.60
13585;DHT22;6863;48.402;9.994;2023-05-07T10:16:32;31.90;42.90
13585;DHT22;6863;48.402;9.994;2023-05-07T10:19:03;31.60;44.50
13585;DHT22;6863;48.402;9.994;2023-05-07T10:21:29;33.40;41.60
13585;DHT22;6863;48.402;9.994;2023-05-07T10:24:01;33.80;40.80
13585;DHT22;6863;48.402;9.994;2023-05-07T10:26:31;33.50;42.70
13585;DHT22;6863;48.402;9.994;2023-05-07T10:29:11;34.00;41.20
13585;DHT22;6863;48.402;9.994;2023-05-07T10:34:24;34.30;39.50
13585;DHT22;6863;48.402;9.994;2023-05-07T10:36:52;33.40;41.80
13585;DHT22;6863;48.402;9.994;2023-05-07T10:39:20;33.40;41.60
13585;DHT22;6863;48.402;9.994;2023-05-07T10:41:46;33.20;41.00
13585;DHT22;6863;48.402;9.994;2023-05-07T10:44:11;32.60;41.60
13585;DHT22;6863;48.402;9.994;2023-05-07T10:46:37;32.20;42.20
13585;DHT22;6863;48.402;9.994;2023-05-07T10:51:35;31.50;43.90
13585;DHT22;6863;48.402;9.994;2023-05-07T10:56:40;31.40;45.40
13585;DHT22;6863;48.402;9.994;2023-05-07T11:01:53;30.70;47.00
13585;DHT22;6863;48.402;9.994;2023-05-07T11:04:19;30.30;47.00
13585;DHT22;6863;48.402;9.994;2023-05-07T11:07:29;31.80;46.00
13585;DHT22;6863;48.402;9.994;2023-05-07T11:09:55;34.70;41.70
13585;DHT22;6863;48.402;9.994;2023-05-07T11:15:11;37.60;36.60
13585;DHT22;6863;48.402;9.994;2023-05-07T11:17:55;38.00;35.80
13585;DHT22;6863;48.402;9.994;2023-05-07T11:20:43;37.20;36.10
13585;DHT22;6863;48.402;9.994;2023-05-07T11:23:17;35.30;37.90
13585;DHT22;6863;48.402;9.994;2023-05-07T11:26:03;33.90;40.70
13585;DHT22;6863;48.402;9.994;2023-05-07T11:28:29;32.70;42.90
13585;DHT22;6863;48.402;9.994;2023-05-07T11:30:56;31.80;44.10
13585;DHT22;6863;48.402;9.994;2023-05-07T11:33:23;31.80;45.10
13585;DHT22;6863;48.402;9.994;2023-05-07T11:35:53;33.10;43.40
13585;DHT22;6863;48.402;9.994;2023-05-07T11:38:19;34.60;40.30
13585;DHT22;6863;48.402;9.994;2023-05-07T11:40:49;36.10;38.00
13585;DHT22;6863;48.402;9.994;2023-05-07T11:43:15;36.50;38.00
13585;DHT22;6863;48.402;9.994;2023-05-07T11:45:41;37.90;35.90
13585;DHT22;6863;48.402;9.994;2023-05-07T11:48:07;38.70;34.30
13585;DHT22;6863;48.402;9.994;2023-05-07T11:50:32;39.70;32.30
13585;DHT22;6863;48.402;9.994;2023-05-07T11:52:58;40.10;31.70
13585;DHT22;6863;48.402;9.994;2023-05-07T11:55:24;38.60;33.60
13585;DHT22;6863;48.402;9.994;2023-05-07T11:57:51;37.90;33.80
13585;DHT22;6863;48.402;9.994;2023-05-07T12:00:17;38.50;32.90
13585;DHT22;6863;48.402;9.994;2023-05-07T12:02:45;37.50;33.00
13585;DHT22;6863;48.402;9.994;2023-05-07T12:05:13;37.00;33.80
13585;DHT22;6863;48.402;9.994;2023-05-07T12:07:39;37.30;34.10
13585;DHT22;6863;48.402;9.994;2023-05-07T12:10:08;37.30;33.40
13585;DHT22;6863;48.402;9.994;2023-05-07T12:12:46;34.90;36.00
13585;DHT22;6863;48.402;9.994;2023-05-07T12:15:15;33.10;39.50
13585;DHT22;6863;48.402;9.994;2023-05-07T12:17:41;32.10;41.30
13585;DHT22;6863;48.402;9.994;2023-05-07T12:20:08;32.00;41.00
13585;DHT22;6863;48.402;9.994;2023-05-07T12:22:33;31.90;41.20
13585;DHT22;6863;48.402;9.994;2023-05-07T12:24:59;31.90;41.60
13585;DHT22;6863;48.402;9.994;2023-05-07T12:27:25;31.10;42.30
13585;DHT22;6863;48.402;9.994;2023-05-07T12:29:51;30.10;43.90
13585;DHT22;6863;48.402;9.994;2023-05-07T12:32:18;29.90;44.70
13585;DHT22;6863;48.402;9.994;2023-05-07T12:34:45;30.80;44.00
13585;DHT22;6863;48.402;9.994;2023-05-07T12:37:11;30.70;43.70
13585;DHT22;6863;48.402;9.994;2023-05-07T12:39:38;30.10;44.30
13585;DHT22;6863;48.402;9.994;2023-05-07T12:42:03;30.50;44.60
13585;DHT22;6863;48.402;9.994;2023-05-07T12:44:31;30.10;43.90
13585;DHT22;6863;48.402;9.994;2023-05-07T12:46:57;30.40;43.40
13585;DHT22;6863;48.402;9.994;2023-05-07T12:49:23;30.60;42.70
13585;DHT22;6863;48.402;9.994;2023-05-07T12:51:50;31.20;42.00
13585;DHT22;6863;48.402;9.994;2023-05-07T12:54:30;31.80;41.10
13585;DHT22;6863;48.402;9.994;2023-05-07T12:57:02;32.20;40.20
13585;DHT22;6863;48.402;9.994;2023-05-07T13:02:01;31.20;41.80
13585;DHT22;6863;48.402;9.994;2023-05-07T13:04:26;31.70;40.60
13585;DHT22;6863;48.402;9.994;2023-05-07T13:06:52;31.50;40.20
13585;DHT22;6863;48.402;9.994;2023-05-07T13:09:18;31.40;40.90
13585;DHT22;6863;48.402;9.994;2023-05-07T13:11:43;30.30;42.50
13585;DHT22;6863;48.402;9.994;2023-05-07T13:14:09;29.90;43.90
13585;DHT22;6863;48.402;9.994;2023-05-07T13:16:34;29.80;43.70
13585;DHT22;6863;48.402;9.994;2023-05-07T13:19:00;29.40;44.80
13585;DHT22;6863;48.402;9.994;2023-05-07T13:21:25;29.20;44.40
13585;DHT22;6863;48.402;9.994;2023-05-07T13:23:52;29.10;44.50
13585;DHT22;6863;48.402;9.994;2023-05-07T13:26:18;29.00;44.30
13585;DHT22;6863;48.402;9.994;2023-05-07T13:28:43;28.70;45.60
13585;DHT22;6863;48.402;9.994;2023-05-07T13:31:09;28.00;46.00
13585;DHT22;6863;48.402;9.994;2023-05-07T13:33:35;27.80;46.20
13585;DHT22;6863;48.402;9.994;2023-05-07T13:36:01;27.50;47.00
13585;DHT22;6863;48.402;9.994;2023-05-07T13:38:29;27.50;46.60
13585;DHT22;6863;48.402;9.994;2023-05-07T13:40:54;27.40;46.80
13585;DHT22;6863;48.402;9.994;2023-05-07T13:43:20;27.60;46.80
13585;DHT22;6863;48.402;9.994;2023-05-07T13:45:46;27.70;46.60
13585;DHT22;6863;48.402;9.994;2023-05-07T13:48:11;27.80;46.90
13585;DHT22;6863;48.402;9.994;2023-05-07T13:50:37;28.00;46.70
13585;DHT22;6863;48.402;9.994;2023-05-07T13:53:02;28.00;46.60
13585;DHT22;6863;48.402;9.994;2023-05-07T13:55:28;28.10;46.70
13585;DHT22;6863;48.402;9.994;2023-05-07T13:57:56;28.00;46.90
13585;DHT22;6863;48.402;9.994;2023-05-07T14:00:22;27.30;48.30
13585;DHT22;6863;48.402;9.994;2023-05-07T14:02:48;27.30;48.70
13585;DHT22;6863;48.402;9.994;2023-05-07T14:05:14;27.50;48.10
13585;DHT22;6863;48.402;9.994;2023-05-07T14:07:39;27.40;47.50
13585;DHT22;6863;48.402;9.994;2023-05-07T14:10:05;27.10;48.40
13585;DHT22;6863;48.402;9.994;2023-05-07T14:12:32;26.90;48.80
13585;DHT22;6863;48.402;9.994;2023-05-07T14:14:58;26.90;49.20
13585;DHT22;6863;48.402;9.994;2023-05-07T14:17:24;26.50;49.50
13585;DHT22;6863;48.402;9.994;2023-05-07T14:19:51;26.50;50.30
13585;DHT22;6863;48.402;9.994;2023-05-07T14:22:20;26.30;50.40
13585;DHT22;6863;48.402;9.994;2023-05-07T14:24:46;26.20;50.80
13585;DHT22;6863;48.402;9.994;2023-05-07T14:27:12;25.90;51.30
13585;DHT22;6863;48.402;9.994;2023-05-07T14:29:40;25.80;51.60
13585;DHT22;6863;48.402;9.994;2023-05-07T14:32:09;25.60;52.10
13585;DHT22;6863;48.402;9.994;2023-05-07T14:34:34;25.40;52.40
13585;DHT22;6863;48.402;9.994;2023-05-07T14:37:00;25.20;52.90
13585;DHT22;6863;48.402;9.994;2023-05-07T14:39:26;25.00;53.30
13585;DHT22;6863;48.402;9.994;2023-05-07T14:41:52;24.70;54.30
13585;DHT22;6863;48.402;9.994;2023-05-07T14:44:20;24.60;54.40
13585;DHT22;6863;48.402;9.994;2023-05-07T14:46:46;24.40;54.90
13585;DHT22;6863;48.402;9.994;2023-05-07T14:49:11;24.20;54.50
13585;DHT22;6863;48.402;9.994;2023-05-07T14:51:43;23.90;55.60
13585;DHT22;6863;48.402;9.994;2023-05-07T14:54:09;23.90;56.70
13585;DHT22;6863;48.402;9.994;2023-05-07T14:56:35;23.60;55.90
13585;DHT22;6863;48.402;9.994;2023-05-07T14:59:02;23.40;56.30
13585;DHT22;6863;48.402;9.994;2023-05-07T15:01:28;23.30;56.70
13585;DHT22;6863;48.402;9.994;2023-05-07T15:03:54;23.20;56.90
13585;DHT22;6863;48.402;9.994;2023-05-07T15:06:20;23.00;57.80
13585;DHT22;6863;48.402;9.994;2023-05-07T15:08:46;22.90;58.20
13585;DHT22;6863;48.402;9.994;2023-05-07T15:11:11;22.80;58.40
13585;DHT22;6863;48.402;9.994;2023-05-07T15:13:37;22.70;59.20
13585;DHT22;6863;48.402;9.994;2023-05-07T15:16:03;22.70;59.60
13585;DHT22;6863;48.402;9.994;2023-05-07T15:18:28;22.60;59.70
13585;DHT22;6863;48.402;9.994;2023-05-07T15:20:55;22.50;60.30
13585;DHT22;6863;48.402;9.994;2023-05-07T15:23:21;22.30;61.10
13585;DHT22;6863;48.402;9.994;2023-05-07T15:25:47;22.20;61.70
13585;DHT22;6863;48.402;9.994;2023-05-07T15:28:12;22.10;62.70
13585;DHT22;6863;48.402;9.994;2023-05-07T15:30:38;21.90;63.50
13585;DHT22;6863;48.402;9.994;2023-05-07T15:33:04;21.70;64.60
13585;DHT22;6863;48.402;9.994;2023-05-07T15:35:29;21.60;65.80
13585;DHT22;6863;48.402;9.994;2023-05-07T15:37:55;21.50;66.10
13585;DHT22;6863;48.402;9.994;2023-05-07T15:40:21;21.40;67.10
13585;DHT22;6863;48.402;9.994;2023-05-07T15:42:47;21.30;67.60
13585;DHT22;6863;48.402;9.994;2023-05-07T15:45:13;21.20;68.30
13585;DHT22;6863;48.402;9.994;2023-05-07T15:47:38;21.10;69.10
13585;DHT22;6863;48.402;9.994;2023-05-07T15:50:04;21.10;70.90
13585;DHT22;6863;48.402;9.994;2023-05-07T15:52:30;20.90;74.50
13585;DHT22;6863;48.402;9.994;2023-05-07T15:54:56;20.70;77.10
13585;DHT22;6863;48.402;9.994;2023-05-07T15:57:23;20.50;81.90
13585;DHT22;6863;48.402;9.994;2023-05-07T15:59:48;20.30;84.60